sensor_id;sensor_type;location;lat;lon;timestamp;temperature;humidity
67358;HTU21D;54240;51.096;5.878;2023-03-21T00:01:13;11.19;-6.00
67358;HTU21D;54240;51.096;5.878;2023-03-21T00:03:40;11.23;-6.00
67358;HTU21D;54240;51.096;5.878;2023-03-21T00:06:10;11.20;-6.00
67358;HTU21D;54240;51.096;5.878;2023-03-21T00:08:37;11.22;-6.00
67358;HTU21D;54240;51.096;5.878;2023-03-21T00:11:06;11.20;-6.00
67358;HTU21D;54240;51.096;5.878;2023-03-21T00:13:34;11.19;-6.00
67358;HTU21D;54240;51.096;5.878;2023-03-21T00:16:15;11.20;-6.00
67358;HTU21D;54240;51.096;5.878;2023-03-21T00:18:48;11.22;-6.00
67358;HTU21D;54240;51.096;5.878;2023-03-21T00:21:20;11.03;-6.00
67358;HTU21D;54240;51.096;5.878;2023-03-21T00:23:46;11.15;-6.00
67358;HTU21D;54240;51.096;5.878;2023-03-21T00:26:14;11.04;-6.00
67358;HTU21D;54240;51.096;5.878;2023-03-21T00:28:41;11.10;-6.00
67358;HTU21D;54240;51.096;5.878;2023-03-21T00:31:08;11.17;-6.00
67358;HTU21D;54240;51.096;5.878;2023-03-21T00:33:35;11.16;-6.00
67358;HTU21D;54240;51.096;5.878;2023-03-21T00:36:02;11.17;-6.00
67358;HTU21D;54240;51.096;5.878;2023-03-21T00:38:28;11.10;-6.00
67358;HTU21D;54240;51.096;5.878;2023-03-21T00:40:54;11.16;-6.00
67358;HTU21D;54240;51.096;5.878;2023-03-21T00:43:20;11.10;-6.00
67358;HTU21D;54240;51.096;5.878;2023-03-21T00:45:56;11.19;-6.00
67358;HTU21D;54240;51.096;5.878;2023-03-21T00:48:26;11.19;-6.00
67358;HTU21D;54240;51.096;5.878;2023-03-21T00:50:55;11.16;-6.00
67358;HTU21D;54240;51.096;5.878;2023-03-21T00:53:22;11.09;-6.00
67358;HTU21D;54240;51.096;5.878;2023-03-21T00:55:48;11.02;-6.00
67358;HTU21D;54240;51.096;5.878;2023-03-21T00:58:15;10.92;-6.00
67358;HTU21D;54240;51.096;5.878;2023-03-21T01:00:43;10.85;-6.00
67358;HTU21D;54240;51.096;5.878;2023-03-21T01:03:14;10.81;-6.00
67358;HTU21D;54240;51.096;5.878;2023-03-21T01:05:43;10.73;-6.00
67358;HTU21D;54240;51.096;5.878;2023-03-21T01:08:29;10.67;-6.00
67358;HTU21D;54240;51.096;5.878;2023-03-21T01:10:55;10.59;-6.00
67358;HTU21D;54240;51.096;5.878;2023-03-21T01:13:23;10.57;-6.00
67358;HTU21D;54240;51.096;5.878;2023-03-21T01:15:53;10.53;-6.00
67358;HTU21D;54240;51.096;5.878;2023-03-21T01:18:22;10.42;-6.00
67358;HTU21D;54240;51.096;5.878;2023-03-21T01:20:50;10.45;-6.00
67358;HTU21D;54240;51.096;5.878;2023-03-21T01:23:16;10.41;-6.00
67358;HTU21D;54240;51.096;5.878;2023-03-21T01:25:42;10.38;-6.00
67358;HTU21D;54240;51.096;5.878;2023-03-21T01:28:08;10.35;-6.00
67358;HTU21D;54240;51.096;5.878;2023-03-21T01:30:35;10.37;-6.00
67358;HTU21D;54240;51.096;5.878;2023-03-21T01:33:02;10.34;-6.00
67358;HTU21D;54240;51.096;5.878;2023-03-21T01:35:28;10.33;-6.00
67358;HTU21D;54240;51.096;5.878;2023-03-21T01:37:54;10.33;-6.00
67358;HTU21D;54240;51.096;5.878;2023-03-21T01:40:25;10.30;-6.00
67358;HTU21D;54240;51.096;5.878;2023-03-21T01:42:58;10.30;-6.00
67358;HTU21D;54240;51.096;5.878;2023-03-21T01:48:56;10.36;-6.00
67358;HTU21D;54240;51.096;5.878;2023-03-21T01:51:25;10.37;-6.00
67358;HTU21D;54240;51.096;5.878;2023-03-21T01:53:56;10.41;-6.00
67358;HTU21D;54240;51.096;5.878;2023-03-21T01:56:34;10.44;-6.00
67358;HTU21D;54240;51.096;5.878;2023-03-21T01:59:23;10.51;-6.00
67358;HTU21D;54240;51.096;5.878;2023-03-21T02:02:32;10.59;-6.00
67358;HTU21D;54240;51.096;5.878;2023-03-21T02:05:31;10.67;-6.00
67358;HTU21D;54240;51.096;5.878;2023-03-21T02:08:02;10.71;-6.00
67358;HTU21D;54240;51.096;5.878;2023-03-21T02:10:31;10.73;-6.00
67358;HTU21D;54240;51.096;5.878;2023-03-21T02:13:03;10.77;-6.00
67358;HTU21D;54240;51.096;5.878;2023-03-21T02:15:34;10.84;-6.00
67358;HTU21D;54240;51.096;5.878;2023-03-21T02:24:01;10.93;-6.00
67358;HTU21D;54240;51.096;5.878;2023-03-21T02:26:53;10.96;-6.00
67358;HTU21D;54240;51.096;5.878;2023-03-21T02:43:27;10.99;-6.00
67358;HTU21D;54240;51.096;5.878;2023-03-21T02:46:06;11.03;-6.00
67358;HTU21D;54240;51.096;5.878;2023-03-21T02:48:38;11.08;-6.00
67358;HTU21D;54240;51.096;5.878;2023-03-21T02:51:13;11.11;-6.00
67358;HTU21D;54240;51.096;5.878;2023-03-21T02:53:44;11.11;-6.00
67358;HTU21D;54240;51.096;5.878;2023-03-21T02:56:12;11.09;-6.00
67358;HTU21D;54240;51.096;5.878;2023-03-21T02:58:45;11.04;-6.00
67358;HTU21D;54240;51.096;5.878;2023-03-21T03:01:12;11.01;-6.00
67358;HTU21D;54240;51.096;5.878;2023-03-21T03:03:44;10.92;-6.00
67358;HTU21D;54240;51.096;5.878;2023-03-21T03:06:26;10.77;-6.00
67358;HTU21D;54240;51.096;5.878;2023-03-21T03:11:36;10.44;-6.00
67358;HTU21D;54240;51.096;5.878;2023-03-21T03:19:34;10.23;-6.00
67358;HTU21D;54240;51.096;5.878;2023-03-21T03:22:09;10.19;-6.00
67358;HTU21D;54240;51.096;5.878;2023-03-21T03:24:50;10.13;-6.00
67358;HTU21D;54240;51.096;5.878;2023-03-21T03:27:26;10.10;-6.00
67358;HTU21D;54240;51.096;5.878;2023-03-21T03:29:58;10.07;-6.00
67358;HTU21D;54240;51.096;5.878;2023-03-21T03:32:46;10.01;-6.00
67358;HTU21D;54240;51.096;5.878;2023-03-21T03:35:17;9.94;-6.00
67358;HTU21D;54240;51.096;5.878;2023-03-21T03:37:49;9.90;-6.00
67358;HTU21D;54240;51.096;5.878;2023-03-21T03:40:33;9.83;-6.00
67358;HTU21D;54240;51.096;5.878;2023-03-21T03:43:25;9.82;-6.00
67358;HTU21D;54240;51.096;5.878;2023-03-21T03:46:08;9.81;-6.00
67358;HTU21D;54240;51.096;5.878;2023-03-21T03:48:47;9.79;-6.00
67358;HTU21D;54240;51.096;5.878;2023-03-21T03:51:26;9.82;-6.00
67358;HTU21D;54240;51.096;5.878;2023-03-21T03:54:17;9.88;-6.00
67358;HTU21D;54240;51.096;5.878;2023-03-21T03:56:45;9.91;-6.00
67358;HTU21D;54240;51.096;5.878;2023-03-21T03:59:11;9.95;-6.00
67358;HTU21D;54240;51.096;5.878;2023-03-21T04:01:55;9.99;-6.00
67358;HTU21D;54240;51.096;5.878;2023-03-21T04:04:21;10.03;-6.00
67358;HTU21D;54240;51.096;5.878;2023-03-21T04:06:49;10.09;-6.00
67358;HTU21D;54240;51.096;5.878;2023-03-21T04:09:21;10.13;-6.00
67358;HTU21D;54240;51.096;5.878;2023-03-21T04:11:48;10.15;-6.00
67358;HTU21D;54240;51.096;5.878;2023-03-21T04:14:14;10.14;-6.00
67358;HTU21D;54240;51.096;5.878;2023-03-21T04:16:41;10.14;-6.00
67358;HTU21D;54240;51.096;5.878;2023-03-21T04:19:07;10.15;-6.00
67358;HTU21D;54240;51.096;5.878;2023-03-21T04:21:34;10.15;-6.00
67358;HTU21D;54240;51.096;5.878;2023-03-21T04:24:00;10.20;-6.00
67358;HTU21D;54240;51.096;5.878;2023-03-21T04:26:27;10.21;-6.00
67358;HTU21D;54240;51.096;5.878;2023-03-21T04:29:17;10.23;-6.00
67358;HTU21D;54240;51.096;5.878;2023-03-21T04:31:58;10.19;-6.00
67358;HTU21D;54240;51.096;5.878;2023-03-21T04:34:25;10.20;-6.00
67358;HTU21D;54240;51.096;5.878;2023-03-21T04:36:56;10.29;-6.00
67358;HTU21D;54240;51.096;5.878;2023-03-21T04:39:22;10.36;-6.00
67358;HTU21D;54240;51.096;5.878;2023-03-21T04:41:49;10.40;-6.00
67358;HTU21D;54240;51.096;5.878;2023-03-21T04:44:16;10.48;-6.00
67358;HTU21D;54240;51.096;5.878;2023-03-21T04:46:43;10.54;-6.00
67358;HTU21D;54240;51.096;5.878;2023-03-21T04:49:11;10.60;-6.00
67358;HTU21D;54240;51.096;5.878;2023-03-21T04:51:37;10.62;-6.00
67358;HTU21D;54240;51.096;5.878;2023-03-21T04:54:07;10.69;-6.00
67358;HTU21D;54240;51.096;5.878;2023-03-21T04:56:33;10.58;-6.00
67358;HTU21D;54240;51.096;5.878;2023-03-21T04:59:11;10.53;-6.00
67358;HTU21D;54240;51.096;5.878;2023-03-21T05:01:37;10.44;-6.00
67358;HTU21D;54240;51.096;5.878;2023-03-21T05:04:06;10.35;-6.00
67358;HTU21D;54240;51.096;5.878;2023-03-21T05:06:34;10.29;-6.00
67358;HTU21D;54240;51.096;5.878;2023-03-21T05:09:02;10.41;-6.00
67358;HTU21D;54240;51.096;5.878;2023-03-21T05:11:35;10.40;-6.00
67358;HTU21D;54240;51.096;5.878;2023-03-21T05:14:04;10.42;-6.00
67358;HTU21D;54240;51.096;5.878;2023-03-21T05:16:30;10.48;-6.00
67358;HTU21D;54240;51.096;5.878;2023-03-21T05:18:58;10.53;-6.00
67358;HTU21D;54240;51.096;5.878;2023-03-21T05:21:38;10.60;-6.00
67358;HTU21D;54240;51.096;5.878;2023-03-21T05:24:18;10.65;-6.00
67358;HTU21D;54240;51.096;5.878;2023-03-21T05:26:45;10.71;-6.00
67358;HTU21D;54240;51.096;5.878;2023-03-21T05:29:17;10.73;-6.00
67358;HTU21D;54240;51.096;5.878;2023-03-21T05:31:49;10.78;-6.00
67358;HTU21D;54240;51.096;5.878;2023-03-21T05:34:15;10.82;-6.00
67358;HTU21D;54240;51.096;5.878;2023-03-21T05:36:42;10.85;-6.00
67358;HTU21D;54240;51.096;5.878;2023-03-21T05:39:10;10.87;-6.00
67358;HTU21D;54240;51.096;5.878;2023-03-21T05:41:40;10.85;-6.00
67358;HTU21D;54240;51.096;5.878;2023-03-21T05:44:07;10.84;-6.00
67358;HTU21D;54240;51.096;5.878;2023-03-21T05:46:35;10.89;-6.00
67358;HTU21D;54240;51.096;5.878;2023-03-21T05:49:02;10.65;-6.00
67358;HTU21D;54240;51.096;5.878;2023-03-21T05:51:27;10.70;-6.00
67358;HTU21D;54240;51.096;5.878;2023-03-21T05:53:54;10.57;-6.00
67358;HTU21D;54240;51.096;5.878;2023-03-21T05:56:20;10.56;-6.00
67358;HTU21D;54240;51.096;5.878;2023-03-21T05:58:51;10.60;-6.00
67358;HTU21D;54240;51.096;5.878;2023-03-21T06:01:17;10.54;-6.00
67358;HTU21D;54240;51.096;5.878;2023-03-21T06:03:51;10.51;-6.00
67358;HTU21D;54240;51.096;5.878;2023-03-21T06:06:22;10.52;-6.00
67358;HTU21D;54240;51.096;5.878;2023-03-21T06:08:53;10.56;-6.00
67358;HTU21D;54240;51.096;5.878;2023-03-21T06:11:30;10.70;-6.00
67358;HTU21D;54240;51.096;5.878;2023-03-21T06:14:29;10.71;-6.00
67358;HTU21D;54240;51.096;5.878;2023-03-21T06:17:11;10.82;-6.00
67358;HTU21D;54240;51.096;5.878;2023-03-21T06:19:45;10.92;-6.00
67358;HTU21D;54240;51.096;5.878;2023-03-21T06:22:17;10.99;-6.00
67358;HTU21D;54240;51.096;5.878;2023-03-21T06:24:43;11.03;-6.00
67358;HTU21D;54240;51.096;5.878;2023-03-21T06:27:09;11.07;-6.00
67358;HTU21D;54240;51.096;5.878;2023-03-21T06:29:48;11.13;-6.00
67358;HTU21D;54240;51.096;5.878;2023-03-21T06:32:14;11.18;-6.00
67358;HTU21D;54240;51.096;5.878;2023-03-21T06:34:41;11.22;-6.00
67358;HTU21D;54240;51.096;5.878;2023-03-21T06:37:11;11.26;-6.00
67358;HTU21D;54240;51.096;5.878;2023-03-21T06:39:37;11.30;-6.00
67358;HTU21D;54240;51.096;5.878;2023-03-21T06:42:03;11.31;-6.00
67358;HTU21D;54240;51.096;5.878;2023-03-21T06:44:29;11.33;-6.00
67358;HTU21D;54240;51.096;5.878;2023-03-21T06:47:04;11.36;-6.00
67358;HTU21D;54240;51.096;5.878;2023-03-21T06:49:31;11.37;-6.00
67358;HTU21D;54240;51.096;5.878;2023-03-21T06:52:04;11.29;-6.00
67358;HTU21D;54240;51.096;5.878;2023-03-21T06:54:30;11.20;-6.00
67358;HTU21D;54240;51.096;5.878;2023-03-21T06:57:03;11.18;-6.00
67358;HTU21D;54240;51.096;5.878;2023-03-21T06:59:32;11.14;-6.00
67358;HTU21D;54240;51.096;5.878;2023-03-21T07:02:10;11.12;-6.00
67358;HTU21D;54240;51.096;5.878;2023-03-21T07:04:41;11.11;-6.00
67358;HTU21D;54240;51.096;5.878;2023-03-21T07:07:13;11.13;-6.00
67358;HTU21D;54240;51.096;5.878;2023-03-21T07:09:40;11.13;-6.00
67358;HTU21D;54240;51.096;5.878;2023-03-21T07:12:06;11.04;-6.00
67358;HTU21D;54240;51.096;5.878;2023-03-21T07:14:52;10.96;-6.00
67358;HTU21D;54240;51.096;5.878;2023-03-21T07:17:18;10.94;-6.00
67358;HTU21D;54240;51.096;5.878;2023-03-21T07:19:44;10.94;-6.00
67358;HTU21D;54240;51.096;5.878;2023-03-21T07:22:10;10.98;-6.00
67358;HTU21D;54240;51.096;5.878;2023-03-21T07:24:36;10.90;-6.00
67358;HTU21D;54240;51.096;5.878;2023-03-21T07:27:02;11.00;-6.00
67358;HTU21D;54240;51.096;5.878;2023-03-21T07:29:28;11.05;-6.00
67358;HTU21D;54240;51.096;5.878;2023-03-21T07:31:53;11.07;-6.00
67358;HTU21D;54240;51.096;5.878;2023-03-21T07:34:21;11.11;-6.00
67358;HTU21D;54240;51.096;5.878;2023-03-21T07:36:47;11.16;-6.00
67358;HTU21D;54240;51.096;5.878;2023-03-21T07:39:13;11.10;-6.00
67358;HTU21D;54240;51.096;5.878;2023-03-21T07:41:38;11.23;-6.00
67358;HTU21D;54240;51.096;5.878;2023-03-21T07:44:23;11.27;-6.00
67358;HTU21D;54240;51.096;5.878;2023-03-21T07:46:59;11.36;-6.00
67358;HTU21D;54240;51.096;5.878;2023-03-21T07:49:25;11.44;-6.00
67358;HTU21D;54240;51.096;5.878;2023-03-21T07:51:51;11.45;-6.00
67358;HTU21D;54240;51.096;5.878;2023-03-21T07:54:17;11.42;-6.00
67358;HTU21D;54240;51.096;5.878;2023-03-21T07:56:45;11.48;-6.00
67358;HTU21D;54240;51.096;5.878;2023-03-21T07:59:11;11.56;-6.00
67358;HTU21D;54240;51.096;5.878;2023-03-21T08:01:37;11.59;-6.00
67358;HTU21D;54240;51.096;5.878;2023-03-21T08:04:02;11.58;-6.00
67358;HTU21D;54240;51.096;5.878;2023-03-21T08:06:28;11.68;-6.00
67358;HTU21D;54240;51.096;5.878;2023-03-21T08:08:59;11.61;-6.00
67358;HTU21D;54240;51.096;5.878;2023-03-21T08:11:25;11.59;-6.00
67358;HTU21D;54240;51.096;5.878;2023-03-21T08:13:52;11.66;-6.00
67358;HTU21D;54240;51.096;5.878;2023-03-21T08:16:18;11.55;-6.00
67358;HTU21D;54240;51.096;5.878;2023-03-21T08:18:45;11.54;-6.00
67358;HTU21D;54240;51.096;5.878;2023-03-21T08:21:11;11.42;-6.00
67358;HTU21D;54240;51.096;5.878;2023-03-21T08:23:37;11.43;-6.00
67358;HTU21D;54240;51.096;5.878;2023-03-21T08:26:03;11.38;-6.00
67358;HTU21D;54240;51.096;5.878;2023-03-21T08:28:28;11.33;-6.00
67358;HTU21D;54240;51.096;5.878;2023-03-21T08:30:55;11.38;-6.00
67358;HTU21D;54240;51.096;5.878;2023-03-21T08:33:21;11.33;-6.00
67358;HTU21D;54240;51.096;5.878;2023-03-21T08:35:47;11.31;-6.00
67358;HTU21D;54240;51.096;5.878;2023-03-21T08:38:13;11.19;-6.00
67358;HTU21D;54240;51.096;5.878;2023-03-21T08:40:40;11.18;-6.00
67358;HTU21D;54240;51.096;5.878;2023-03-21T08:43:07;11.15;-6.00
67358;HTU21D;54240;51.096;5.878;2023-03-21T08:45:33;11.12;-6.00
67358;HTU21D;54240;51.096;5.878;2023-03-21T08:47:59;11.16;-6.00
67358;HTU21D;54240;51.096;5.878;2023-03-21T08:50:25;11.02;-6.00
67358;HTU21D;54240;51.096;5.878;2023-03-21T08:52:54;11.05;-6.00
67358;HTU21D;54240;51.096;5.878;2023-03-21T08:55:20;10.87;-6.00
67358;HTU21D;54240;51.096;5.878;2023-03-21T08:57:46;10.98;-6.00
67358;HTU21D;54240;51.096;5.878;2023-03-21T09:00:15;10.83;-6.00
67358;HTU21D;54240;51.096;5.878;2023-03-21T09:02:47;10.88;-6.00
67358;HTU21D;54240;51.096;5.878;2023-03-21T09:05:14;10.83;-6.00
67358;HTU21D;54240;51.096;5.878;2023-03-21T09:07:41;10.75;-6.00
67358;HTU21D;54240;51.096;5.878;2023-03-21T09:10:11;10.81;-6.00
67358;HTU21D;54240;51.096;5.878;2023-03-21T09:12:37;10.70;-6.00
67358;HTU21D;54240;51.096;5.878;2023-03-21T09:15:04;10.69;-6.00
67358;HTU21D;54240;51.096;5.878;2023-03-21T09:17:30;10.69;-6.00
67358;HTU21D;54240;51.096;5.878;2023-03-21T09:19:58;10.73;-6.00
67358;HTU21D;54240;51.096;5.878;2023-03-21T09:22:26;10.72;-6.00
67358;HTU21D;54240;51.096;5.878;2023-03-21T09:24:52;10.92;-6.00
67358;HTU21D;54240;51.096;5.878;2023-03-21T09:27:18;11.05;-6.00
67358;HTU21D;54240;51.096;5.878;2023-03-21T09:29:48;11.14;-6.00
67358;HTU21D;54240;51.096;5.878;2023-03-21T09:32:15;11.17;-6.00
67358;HTU21D;54240;51.096;5.878;2023-03-21T09:34:43;11.29;-6.00
67358;HTU21D;54240;51.096;5.878;2023-03-21T09:37:09;11.54;-6.00
67358;HTU21D;54240;51.096;5.878;2023-03-21T09:39:36;11.64;-6.00
67358;HTU21D;54240;51.096;5.878;2023-03-21T09:47:44;12.38;-6.00
67358;HTU21D;54240;51.096;5.878;2023-03-21T09:50:30;12.51;-6.00
67358;HTU21D;54240;51.096;5.878;2023-03-21T09:53:07;12.71;-6.00
67358;HTU21D;54240;51.096;5.878;2023-03-21T09:55:37;12.77;-6.00
67358;HTU21D;54240;51.096;5.878;2023-03-21T10:03:54;12.85;-6.00
67358;HTU21D;54240;51.096;5.878;2023-03-21T10:06:23;13.01;-6.00
67358;HTU21D;54240;51.096;5.878;2023-03-21T10:09:16;13.17;-6.00
67358;HTU21D;54240;51.096;5.878;2023-03-21T10:12:15;13.30;-6.00
67358;HTU21D;54240;51.096;5.878;2023-03-21T10:14:51;13.49;-6.00
67358;HTU21D;54240;51.096;5.878;2023-03-21T10:17:30;13.54;-6.00
67358;HTU21D;54240;51.096;5.878;2023-03-21T10:22:39;13.49;-6.00
67358;HTU21D;54240;51.096;5.878;2023-03-21T10:25:07;13.43;-6.00
67358;HTU21D;54240;51.096;5.878;2023-03-21T10:27:34;13.50;-6.00
67358;HTU21D;54240;51.096;5.878;2023-03-21T10:30:03;13.49;-6.00
67358;HTU21D;54240;51.096;5.878;2023-03-21T10:32:33;13.51;-6.00
67358;HTU21D;54240;51.096;5.878;2023-03-21T10:35:00;13.54;-6.00
67358;HTU21D;54240;51.096;5.878;2023-03-21T10:37:28;13.49;-6.00
67358;HTU21D;54240;51.096;5.878;2023-03-21T10:39:55;13.49;-6.00
67358;HTU21D;54240;51.096;5.878;2023-03-21T10:42:24;13.60;-6.00
67358;HTU21D;54240;51.096;5.878;2023-03-21T10:44:53;13.63;-6.00
67358;HTU21D;54240;51.096;5.878;2023-03-21T10:47:25;13.77;-6.00
67358;HTU21D;54240;51.096;5.878;2023-03-21T10:49:52;13.84;-6.00
67358;HTU21D;54240;51.096;5.878;2023-03-21T10:52:21;13.89;-6.00
67358;HTU21D;54240;51.096;5.878;2023-03-21T10:54:48;14.01;-6.00
67358;HTU21D;54240;51.096;5.878;2023-03-21T10:57:22;14.05;-6.00
67358;HTU21D;54240;51.096;5.878;2023-03-21T10:59:53;14.15;-6.00
67358;HTU21D;54240;51.096;5.878;2023-03-21T11:02:28;14.24;-6.00
67358;HTU21D;54240;51.096;5.878;2023-03-21T11:04:56;14.22;-6.00
67358;HTU21D;54240;51.096;5.878;2023-03-21T11:07:29;14.21;-6.00
67358;HTU21D;54240;51.096;5.878;2023-03-21T11:09:58;14.17;-6.00
67358;HTU21D;54240;51.096;5.878;2023-03-21T11:12:39;14.17;-6.00
67358;HTU21D;54240;51.096;5.878;2023-03-21T11:15:28;14.18;-6.00
67358;HTU21D;54240;51.096;5.878;2023-03-21T11:17:59;14.14;-6.00
67358;HTU21D;54240;51.096;5.878;2023-03-21T11:20:29;14.12;-6.00
67358;HTU21D;54240;51.096;5.878;2023-03-21T11:22:56;13.96;-6.00
67358;HTU21D;54240;51.096;5.878;2023-03-21T11:25:37;13.85;-6.00
67358;HTU21D;54240;51.096;5.878;2023-03-21T11:28:24;13.77;-6.00
67358;HTU21D;54240;51.096;5.878;2023-03-21T11:30:59;13.56;-6.00
67358;HTU21D;54240;51.096;5.878;2023-03-21T11:33:50;13.63;-6.00
67358;HTU21D;54240;51.096;5.878;2023-03-21T11:38:51;14.01;-6.00
67358;HTU21D;54240;51.096;5.878;2023-03-21T11:41:28;14.08;-6.00
67358;HTU21D;54240;51.096;5.878;2023-03-21T11:43:57;13.99;-6.00
67358;HTU21D;54240;51.096;5.878;2023-03-21T11:46:28;14.11;-6.00
67358;HTU21D;54240;51.096;5.878;2023-03-21T11:48:56;14.00;-6.00
67358;HTU21D;54240;51.096;5.878;2023-03-21T11:56:45;13.96;-6.00
67358;HTU21D;54240;51.096;5.878;2023-03-21T12:02:08;14.01;-6.00
67358;HTU21D;54240;51.096;5.878;2023-03-21T12:04:45;14.14;-6.00
67358;HTU21D;54240;51.096;5.878;2023-03-21T12:15:30;14.78;-6.00
67358;HTU21D;54240;51.096;5.878;2023-03-21T12:40:25;15.10;-6.00
67358;HTU21D;54240;51.096;5.878;2023-03-21T12:49:14;15.33;-6.00
67358;HTU21D;54240;51.096;5.878;2023-03-21T12:51:48;15.47;-6.00
67358;HTU21D;54240;51.096;5.878;2023-03-21T12:57:08;15.60;-6.00
67358;HTU21D;54240;51.096;5.878;2023-03-21T13:00:02;15.71;-6.00
67358;HTU21D;54240;51.096;5.878;2023-03-21T13:05:51;16.14;-6.00
67358;HTU21D;54240;51.096;5.878;2023-03-21T13:10:47;15.92;-6.00
67358;HTU21D;54240;51.096;5.878;2023-03-21T13:13:21;15.81;-6.00
67358;HTU21D;54240;51.096;5.878;2023-03-21T13:21:35;15.82;-6.00
67358;HTU21D;54240;51.096;5.878;2023-03-21T13:26:47;15.81;-6.00
67358;HTU21D;54240;51.096;5.878;2023-03-21T13:32:06;15.38;-6.00
67358;HTU21D;54240;51.096;5.878;2023-03-21T13:34:32;15.37;-6.00
67358;HTU21D;54240;51.096;5.878;2023-03-21T13:37:00;15.63;-6.00
67358;HTU21D;54240;51.096;5.878;2023-03-21T13:39:28;15.78;-6.00
67358;HTU21D;54240;51.096;5.878;2023-03-21T13:41:54;15.74;-6.00
67358;HTU21D;54240;51.096;5.878;2023-03-21T13:44:40;15.67;-6.00
67358;HTU21D;54240;51.096;5.878;2023-03-21T13:47:39;15.65;-6.00
67358;HTU21D;54240;51.096;5.878;2023-03-21T13:50:34;15.45;-6.00
67358;HTU21D;54240;51.096;5.878;2023-03-21T13:55:29;15.60;-6.00
67358;HTU21D;54240;51.096;5.878;2023-03-21T13:57:56;15.98;-6.00
67358;HTU21D;54240;51.096;5.878;2023-03-21T14:00:28;15.91;-6.00
67358;HTU21D;54240;51.096;5.878;2023-03-21T14:03:10;15.97;-6.00
67358;HTU21D;54240;51.096;5.878;2023-03-21T14:05:38;15.96;-6.00
67358;HTU21D;54240;51.096;5.878;2023-03-21T14:08:07;16.18;-6.00
67358;HTU21D;54240;51.096;5.878;2023-03-21T14:10:41;16.29;-6.00
67358;HTU21D;54240;51.096;5.878;2023-03-21T14:13:16;16.08;-6.00
67358;HTU21D;54240;51.096;5.878;2023-03-21T14:15:51;16.22;-6.00
67358;HTU21D;54240;51.096;5.878;2023-03-21T14:18:20;16.05;-6.00
67358;HTU21D;54240;51.096;5.878;2023-03-21T14:20:55;15.93;-6.00
67358;HTU21D;54240;51.096;5.878;2023-03-21T14:23:22;15.69;-6.00
67358;HTU21D;54240;51.096;5.878;2023-03-21T14:25:48;15.65;-6.00
67358;HTU21D;54240;51.096;5.878;2023-03-21T14:28:24;15.71;-6.00
67358;HTU21D;54240;51.096;5.878;2023-03-21T14:30:53;15.73;-6.00
67358;HTU21D;54240;51.096;5.878;2023-03-21T14:33:24;15.87;-6.00
67358;HTU21D;54240;51.096;5.878;2023-03-21T14:35:56;16.11;-6.00
67358;HTU21D;54240;51.096;5.878;2023-03-21T14:38:25;16.43;-6.00
67358;HTU21D;54240;51.096;5.878;2023-03-21T14:40:54;16.87;-6.00
67358;HTU21D;54240;51.096;5.878;2023-03-21T14:43:23;17.30;-6.00
67358;HTU21D;54240;51.096;5.878;2023-03-21T14:45:52;17.36;-6.00
67358;HTU21D;54240;51.096;5.878;2023-03-21T14:48:20;17.22;-6.00
67358;HTU21D;54240;51.096;5.878;2023-03-21T14:50:47;17.15;-6.00
67358;HTU21D;54240;51.096;5.878;2023-03-21T14:53:18;16.86;-6.00
67358;HTU21D;54240;51.096;5.878;2023-03-21T14:56:15;16.84;-6.00
67358;HTU21D;54240;51.096;5.878;2023-03-21T14:58:41;16.64;-6.00
67358;HTU21D;54240;51.096;5.878;2023-03-21T15:01:16;16.64;-6.00
67358;HTU21D;54240;51.096;5.878;2023-03-21T15:03:50;16.60;-6.00
67358;HTU21D;54240;51.096;5.878;2023-03-21T15:06:16;16.59;-6.00
67358;HTU21D;54240;51.096;5.878;2023-03-21T15:08:58;16.47;-6.00
67358;HTU21D;54240;51.096;5.878;2023-03-21T15:11:35;16.52;-6.00
67358;HTU21D;54240;51.096;5.878;2023-03-21T15:14:05;16.54;-6.00
67358;HTU21D;54240;51.096;5.878;2023-03-21T15:16:33;16.44;-6.00
67358;HTU21D;54240;51.096;5.878;2023-03-21T15:19:00;16.21;-6.00
67358;HTU21D;54240;51.096;5.878;2023-03-21T15:21:34;15.99;-6.00
67358;HTU21D;54240;51.096;5.878;2023-03-21T15:24:10;15.97;-6.00
67358;HTU21D;54240;51.096;5.878;2023-03-21T15:26:43;16.12;-6.00
67358;HTU21D;54240;51.096;5.878;2023-03-21T15:29:10;16.03;-6.00
67358;HTU21D;54240;51.096;5.878;2023-03-21T15:31:39;16.08;-6.00
67358;HTU21D;54240;51.096;5.878;2023-03-21T15:34:06;16.19;-6.00
67358;HTU21D;54240;51.096;5.878;2023-03-21T15:36:42;16.01;-6.00
67358;HTU21D;54240;51.096;5.878;2023-03-21T15:39:13;15.92;-6.00
67358;HTU21D;54240;51.096;5.878;2023-03-21T15:41:40;16.03;-6.00
67358;HTU21D;54240;51.096;5.878;2023-03-21T15:46:38;16.11;-6.00
67358;HTU21D;54240;51.096;5.878;2023-03-21T15:51:46;16.06;-6.00
67358;HTU21D;54240;51.096;5.878;2023-03-21T15:54:22;15.99;-6.00
67358;HTU21D;54240;51.096;5.878;2023-03-21T15:56:54;16.05;-6.00
67358;HTU21D;54240;51.096;5.878;2023-03-21T15:59:26;16.05;-6.00
67358;HTU21D;54240;51.096;5.878;2023-03-21T16:01:52;16.01;-6.00
67358;HTU21D;54240;51.096;5.878;2023-03-21T16:04:18;16.07;-6.00
67358;HTU21D;54240;51.096;5.878;2023-03-21T16:07:00;16.06;-6.00
67358;HTU21D;54240;51.096;5.878;2023-03-21T16:09:38;16.04;-6.00
67358;HTU21D;54240;51.096;5.878;2023-03-21T16:12:11;15.99;-6.00
67358;HTU21D;54240;51.096;5.878;2023-03-21T16:14:38;15.84;-6.00
67358;HTU21D;54240;51.096;5.878;2023-03-21T16:17:26;15.89;-6.00
67358;HTU21D;54240;51.096;5.878;2023-03-21T16:19:52;15.90;-6.00
67358;HTU21D;54240;51.096;5.878;2023-03-21T16:22:19;15.93;-6.00
67358;HTU21D;54240;51.096;5.878;2023-03-21T16:24:47;15.90;-6.00
67358;HTU21D;54240;51.096;5.878;2023-03-21T16:27:16;15.66;-6.00
67358;HTU21D;54240;51.096;5.878;2023-03-21T16:29:43;15.82;-6.00
67358;HTU21D;54240;51.096;5.878;2023-03-21T16:32:14;15.75;-6.00
67358;HTU21D;54240;51.096;5.878;2023-03-21T16:34:41;15.77;-6.00
67358;HTU21D;54240;51.096;5.878;2023-03-21T16:37:11;15.68;-6.00
67358;HTU21D;54240;51.096;5.878;2023-03-21T16:39:37;15.65;-6.00
67358;HTU21D;54240;51.096;5.878;2023-03-21T16:42:03;15.46;-6.00
67358;HTU21D;54240;51.096;5.878;2023-03-21T16:44:29;15.41;-6.00
67358;HTU21D;54240;51.096;5.878;2023-03-21T16:46:55;15.45;-6.00
67358;HTU21D;54240;51.096;5.878;2023-03-21T16:49:24;15.56;-6.00
67358;HTU21D;54240;51.096;5.878;2023-03-21T16:51:52;15.60;-6.00
67358;HTU21D;54240;51.096;5.878;2023-03-21T16:54:19;15.68;-6.00
67358;HTU21D;54240;51.096;5.878;2023-03-21T16:56:49;15.48;-6.00
67358;HTU21D;54240;51.096;5.878;2023-03-21T16:59:17;15.60;-6.00
67358;HTU21D;54240;51.096;5.878;2023-03-21T17:01:43;15.51;-6.00
67358;HTU21D;54240;51.096;5.878;2023-03-21T17:04:11;15.49;-6.00
67358;HTU21D;54240;51.096;5.878;2023-03-21T17:06:53;15.44;-6.00
67358;HTU21D;54240;51.096;5.878;2023-03-21T17:09:23;15.39;-6.00
67358;HTU21D;54240;51.096;5.878;2023-03-21T17:11:50;15.41;-6.00
67358;HTU21D;54240;51.096;5.878;2023-03-21T17:14:16;15.29;-6.00
67358;HTU21D;54240;51.096;5.878;2023-03-21T17:16:43;15.18;-6.00
67358;HTU21D;54240;51.096;5.878;2023-03-21T17:19:16;15.12;-6.00
67358;HTU21D;54240;51.096;5.878;2023-03-21T17:21:43;15.07;-6.00
67358;HTU21D;54240;51.096;5.878;2023-03-21T17:24:09;15.01;-6.00
67358;HTU21D;54240;51.096;5.878;2023-03-21T17:26:35;14.95;-6.00
67358;HTU21D;54240;51.096;5.878;2023-03-21T17:29:02;15.03;-6.00
67358;HTU21D;54240;51.096;5.878;2023-03-21T17:31:32;14.96;-6.00
67358;HTU21D;54240;51.096;5.878;2023-03-21T17:33:59;14.98;-6.00
67358;HTU21D;54240;51.096;5.878;2023-03-21T17:36:32;15.03;-6.00
67358;HTU21D;54240;51.096;5.878;2023-03-21T17:38:59;14.89;-6.00
67358;HTU21D;54240;51.096;5.878;2023-03-21T17:41:26;14.81;-6.00